Time;durP1;ratioP1;P1;durP2;ratioP2;P2;SDS_P1;SDS_P2;PMS_P1;PMS_P2;Temp;Humidity;BMP_temperature;BMP_pressure;BME280_temperature;BME280_humidity;BME280_pressure;Samples;Min_cycle;Max_cycle;Signal;HPM_P1;HPM_P2
2023/05/12 00:01:19;;;;;;;1.63;1.53;;;14.00;99.90;;;14.23;98.14;100392.00;5013522;28;20637;-68
2023/05/12 00:03:46;;;;;;;1.80;1.70;;;14.00;99.90;;;14.25;99.02;100396.16;5020645;28;20633;-67
2023/05/12 00:06:13;;;;;;;1.87;1.67;;;14.00;99.90;;;14.24;98.90;100389.25;5013998;28;20694;-67
2023/05/12 00:08:40;;;;;;;1.43;1.33;;;14.00;99.90;;;14.25;98.57;100392.69;5025699;28;20791;-67
2023/05/12 00:11:07;;;;;;;1.50;1.40;;;14.00;99.90;;;14.20;98.91;100393.13;5027813;28;21219;-68
2023/05/12 00:13:34;;;;;;;1.60;1.43;;;14.00;99.90;;;14.20;98.63;100387.06;5031874;28;20604;-67
2023/05/12 00:16:02;;;;;;;1.83;1.60;;;14.00;99.90;;;14.18;99.25;100391.63;5019714;28;20633;-67
2023/05/12 00:18:29;;;;;;;1.60;1.50;;;14.00;99.90;;;14.16;98.96;100391.72;5014153;28;20663;-67
2023/05/12 00:20:56;;;;;;;2.40;1.80;;;14.00;99.90;;;14.15;99.25;100394.50;5025548;28;20671;-67
2023/05/12 00:23:23;;;;;;;1.50;1.40;;;13.90;99.90;;;14.09;98.97;100395.06;5025495;28;20621;-67
2023/05/12 00:25:50;;;;;;;1.30;1.20;;;13.90;99.90;;;14.09;98.92;100390.66;5024753;28;20641;-67
2023/05/12 00:28:18;;;;;;;2.10;1.40;;;13.90;99.90;;;14.08;99.19;100390.75;5010204;28;21078;-67
2023/05/12 00:30:44;;;;;;;2.20;2.00;;;13.80;99.90;;;14.05;99.63;100391.06;5019313;28;20656;-67
2023/05/12 00:33:11;;;;;;;1.13;1.13;;;13.80;99.90;;;13.98;99.82;100389.00;5026847;28;20636;-67
2023/05/12 00:35:38;;;;;;;2.13;1.40;;;13.80;99.90;;;13.98;100.00;100386.38;5029864;28;20635;-67
2023/05/12 00:38:05;;;;;;;1.67;1.57;;;13.80;99.90;;;13.94;100.00;100385.00;5028265;28;20635;-67
2023/05/12 00:40:32;;;;;;;1.63;1.40;;;13.70;99.90;;;13.97;100.00;100395.19;5012362;28;21192;-67
2023/05/12 00:42:59;;;;;;;2.10;2.00;;;13.70;99.90;;;13.97;100.00;100382.06;5012879;28;21267;-69
2023/05/12 00:45:28;;;;;;;1.40;1.30;;;13.70;99.90;;;13.96;100.00;100385.69;5026021;28;21219;-67
2023/05/12 00:47:56;;;;;;;1.10;0.97;;;13.70;99.90;;;13.93;100.00;100379.84;5031008;28;20694;-69
2023/05/12 00:50:23;;;;;;;1.00;0.90;;;13.70;99.90;;;13.93;100.00;100375.44;5022000;28;20671;-67
2023/05/12 00:52:51;;;;;;;1.60;1.50;;;13.70;99.90;;;13.92;100.00;100372.97;5033073;28;20616;-67
2023/05/12 00:55:19;;;;;;;1.10;1.10;;;13.70;99.90;;;13.92;100.00;100371.19;5015986;28;21169;-67
2023/05/12 00:57:46;;;;;;;1.23;1.20;;;13.70;99.90;;;13.91;100.00;100373.91;5024171;28;21279;-70
2023/05/12 01:00:13;;;;;;;1.50;1.40;;;13.70;99.90;;;13.91;100.00;100372.13;5029731;28;20627;-68
2023/05/12 01:02:40;;;;;;;1.33;1.27;;;13.70;99.90;;;13.94;100.00;100371.03;5011451;28;20661;-67
2023/05/12 01:05:08;;;;;;;1.10;1.00;;;13.70;99.90;;;13.95;100.00;100377.94;5013461;28;20617;-67
2023/05/12 01:07:37;;;;;;;1.43;1.00;;;13.70;99.90;;;13.95;100.00;100376.13;5029484;28;20728;-67
2023/05/12 01:10:19;;;;;;;1.93;1.50;;;13.70;99.90;;;13.94;100.00;100371.03;5029758;28;20620;-67
2023/05/12 01:12:47;;;;;;;1.27;1.20;;;13.70;99.90;;;13.92;100.00;100368.56;5009875;28;20984;-68
2023/05/12 01:15:14;;;;;;;1.50;1.40;;;13.70;99.90;;;13.91;100.00;100364.25;5023815;28;21156;-71
2023/05/12 01:17:48;;;;;;;1.40;1.27;;;13.70;99.90;;;13.94;100.00;100365.78;5026673;28;20644;-68
2023/05/12 01:20:20;;;;;;;1.00;1.00;;;13.70;99.90;;;13.92;100.00;100365.94;5023686;28;20670;-67
2023/05/12 01:22:48;;;;;;;1.50;1.40;;;13.70;99.90;;;13.94;100.00;100366.63;5031141;28;20629;-68
2023/05/12 01:25:16;;;;;;;1.10;1.10;;;13.70;99.90;;;13.96;100.00;100364.69;5023230;28;20633;-68
2023/05/12 01:27:44;;;;;;;1.30;1.20;;;13.70;99.90;;;13.98;100.00;100361.94;5009172;28;21243;-67
2023/05/12 01:30:16;;;;;;;1.50;1.40;;;13.80;99.90;;;14.00;100.00;100360.00;5010018;28;20736;-67
2023/05/12 01:32:44;;;;;;;1.43;1.33;;;13.80;99.90;;;13.99;100.00;100364.41;5030509;28;20620;-67
2023/05/12 01:35:11;;;;;;;1.63;1.50;;;13.80;99.90;;;14.01;100.00;100356.41;5030567;28;21055;-67
2023/05/12 01:37:38;;;;;;;2.10;1.67;;;13.80;99.90;;;14.02;100.00;100361.50;5029847;28;20741;-67
2023/05/12 01:40:05;;;;;;;1.57;1.47;;;13.80;99.90;;;14.03;100.00;100363.16;5030406;28;20751;-70
2023/05/12 01:42:32;;;;;;;1.23;1.20;;;13.80;99.90;;;14.03;99.92;100363.16;5029414;28;20616;-68
2023/05/12 01:44:59;;;;;;;0.80;0.80;;;13.80;99.90;;;14.00;99.63;100365.22;5020005;28;20651;-67
2023/05/12 01:47:26;;;;;;;1.63;1.53;;;13.80;99.90;;;13.99;99.91;100361.78;5030605;28;20648;-67
2023/05/12 01:49:53;;;;;;;2.17;1.33;;;13.80;99.90;;;13.95;99.66;100359.56;5022563;28;20641;-68
2023/05/12 01:52:20;;;;;;;1.80;1.47;;;13.70;99.90;;;13.93;100.00;100364.97;5049612;28;20639;-67
2023/05/12 01:54:47;;;;;;;1.50;1.40;;;13.70;99.90;;;13.95;100.00;100362.19;5041738;28;20636;-68
2023/05/12 01:57:14;;;;;;;1.73;1.63;;;13.70;99.90;;;13.93;100.00;100367.59;5047998;28;20646;-67
2023/05/12 01:59:41;;;;;;;1.47;1.40;;;13.70;99.90;;;13.91;100.00;100374.75;5039447;28;20698;-70
2023/05/12 02:02:07;;;;;;;1.23;1.13;;;13.70;99.90;;;13.91;100.00;100373.91;5012023;28;20629;-67
2023/05/12 02:04:36;;;;;;;1.17;1.17;;;13.70;99.90;;;13.89;100.00;100371.44;5023238;28;20671;-67
2023/05/12 02:07:03;;;;;;;1.60;1.50;;;13.70;99.90;;;13.88;100.00;100377.66;5018082;28;20629;-67
2023/05/12 02:09:30;;;;;;;1.33;1.33;;;13.70;99.90;;;13.90;100.00;100377.53;5014739;28;20625;-66
2023/05/12 02:11:57;;;;;;;1.70;1.60;;;13.70;99.90;;;13.90;100.00;100373.13;5024122;28;20660;-67
2023/05/12 02:14:24;;;;;;;1.57;1.47;;;13.70;99.90;;;13.89;100.00;100368.81;5035791;28;20612;-67
2023/05/12 02:16:51;;;;;;;2.30;1.87;;;13.70;99.90;;;13.88;100.00;100371.59;5023123;28;20643;-66
2023/05/12 02:19:19;;;;;;;1.43;1.33;;;13.70;99.90;;;13.88;100.00;100366.34;5026603;28;20695;-71
2023/05/12 02:21:47;;;;;;;1.30;1.20;;;13.70;99.90;;;13.89;100.00;100373.22;5038962;28;20673;-67
2023/05/12 02:24:15;;;;;;;1.43;1.37;;;13.70;99.90;;;13.87;100.00;100376.00;5033214;28;20643;-68
2023/05/12 02:26:42;;;;;;;1.93;1.80;;;13.60;99.90;;;13.88;100.00;100372.41;5021321;28;20682;-67
2023/05/12 02:29:10;;;;;;;1.00;0.80;;;13.70;99.90;;;13.82;100.00;100378.19;5028906;28;20656;-67
2023/05/12 02:31:37;;;;;;;1.83;1.70;;;13.60;99.90;;;13.77;100.00;100372.56;5010263;28;20756;-67
2023/05/12 02:34:04;;;;;;;1.27;1.17;;;13.60;99.90;;;13.76;100.00;100373.50;5010239;28;20624;-65
2023/05/12 02:36:32;;;;;;;1.37;1.27;;;13.60;99.90;;;13.70;100.00;100367.97;5041453;28;20673;-69
2023/05/12 02:38:59;;;;;;;1.70;1.60;;;13.50;99.90;;;13.73;100.00;100367.72;5049117;28;21018;-67
2023/05/12 02:41:26;;;;;;;1.40;1.37;;;13.50;99.90;;;13.75;100.00;100371.88;5029663;28;20648;-69
2023/05/12 02:43:53;;;;;;;2.40;1.63;;;13.50;99.90;;;13.77;100.00;100377.81;5032939;28;20641;-67
2023/05/12 02:46:20;;;;;;;1.50;1.40;;;13.60;99.90;;;13.81;100.00;100378.34;5010237;28;21015;-67
2023/05/12 02:48:47;;;;;;;2.03;1.93;;;13.60;99.90;;;13.84;100.00;100371.03;5015377;28;20665;-67
2023/05/12 02:51:15;;;;;;;1.90;1.80;;;13.60;99.90;;;13.89;100.00;100374.06;5008888;28;20669;-70
2023/05/12 02:53:42;;;;;;;2.10;1.90;;;13.70;99.90;;;13.92;100.00;100365.94;5009582;28;20614;-68
2023/05/12 02:56:09;;;;;;;2.10;1.77;;;13.70;99.90;;;13.94;100.00;100363.16;5024359;28;20739;-67
2023/05/12 02:58:36;;;;;;;1.50;1.40;;;13.70;99.90;;;13.94;100.00;100365.78;5029017;28;20640;-67
2023/05/12 03:01:03;;;;;;;1.63;1.53;;;13.70;99.90;;;13.94;100.00;100360.53;5029756;28;21266;-67
2023/05/12 03:03:37;;;;;;;2.20;2.07;;;13.70;99.90;;;13.96;100.00;100366.47;5026727;28;20644;-68
2023/05/12 03:06:05;;;;;;;2.47;2.00;;;13.70;99.90;;;13.93;99.48;100367.59;5024928;28;20768;-68
2023/05/12 03:08:32;;;;;;;1.77;1.67;;;13.70;99.90;;;13.90;99.13;100367.03;5038698;28;20675;-68
2023/05/12 03:10:59;;;;;;;1.60;1.50;;;13.70;99.90;;;13.92;99.34;100371.19;5023021;28;21261;-67
2023/05/12 03:13:28;;;;;;;2.10;1.90;;;13.70;99.90;;;13.93;100.00;100372.00;5024850;28;21246;-69
2023/05/12 03:15:59;;;;;;;2.40;2.20;;;13.70;99.90;;;13.96;100.00;100374.34;5031961;28;20686;-67
2023/05/12 03:18:29;;;;;;;1.67;1.57;;;13.70;99.90;;;13.96;100.00;100372.56;5032406;28;20649;-67
2023/05/12 03:20:57;;;;;;;3.27;2.33;;;13.70;99.90;;;13.96;100.00;100369.09;5016486;28;20669;-68
2023/05/12 03:23:23;;;;;;;1.70;1.60;;;13.70;99.90;;;13.94;100.00;100371.03;5020138;28;21330;-67
2023/05/12 03:25:51;;;;;;;2.53;2.33;;;13.70;99.90;;;13.94;100.00;100371.03;5031856;28;20712;-68
2023/05/12 03:28:17;;;;;;;1.57;1.47;;;13.70;99.90;;;13.92;100.00;100371.19;5043704;28;21289;-67
2023/05/12 03:30:45;;;;;;;2.10;2.00;;;13.70;99.90;;;13.91;100.00;100373.91;5020479;28;20629;-67
2023/05/12 03:33:12;;;;;;;1.70;1.60;;;13.70;99.90;;;13.91;99.77;100371.31;5018472;28;20639;-68
2023/05/12 03:35:39;;;;;;;2.67;2.13;;;13.70;99.90;;;13.90;99.60;100375.75;5021278;28;20641;-67
2023/05/12 03:38:09;;;;;;;2.30;2.00;;;13.70;99.90;;;13.91;99.39;100369.50;5011869;28;20655;-66
2023/05/12 03:40:35;;;;;;;3.67;2.03;;;13.70;99.90;;;13.89;99.40;100374.06;5019744;28;20637;-67
2023/05/12 03:43:03;;;;;;;2.30;2.20;;;13.70;99.90;;;13.88;99.35;100366.34;5016860;28;20621;-67
2023/05/12 03:45:30;;;;;;;2.30;2.00;;;13.70;99.90;;;13.89;99.49;100370.63;5018177;28;20703;-67
2023/05/12 03:48:00;;;;;;;2.00;1.80;;;13.70;99.90;;;13.87;99.47;100375.16;5031421;28;20642;-68
2023/05/12 03:50:30;;;;;;;2.40;2.30;;;13.60;99.90;;;13.87;100.00;100373.38;5028092;28;20647;-68
2023/05/12 03:53:00;;;;;;;2.03;1.90;;;13.60;99.90;;;13.87;99.55;100376.00;5032032;28;20680;-68
2023/05/12 03:55:27;;;;;;;3.93;2.50;;;13.70;99.90;;;13.88;99.85;100374.22;5036187;28;20726;-67
2023/05/12 03:57:57;;;;;;;2.00;1.80;;;13.60;99.90;;;13.89;99.85;100374.06;5039078;28;21037;-69
2023/05/12 04:00:23;;;;;;;2.30;2.10;;;13.70;99.90;;;13.89;100.00;100368.81;5031374;28;20632;-69
2023/05/12 04:02:51;;;;;;;2.57;2.37;;;13.70;99.90;;;13.90;100.00;100369.66;5028104;28;21102;-67
2023/05/12 04:05:18;;;;;;;2.77;2.57;;;13.70;99.90;;;13.91;100.00;100366.88;5026987;28;21195;-67
2023/05/12 04:07:45;;;;;;;3.60;2.47;;;13.70;99.90;;;13.93;100.00;100364.97;5031247;28;20647;-67
2023/05/12 04:10:12;;;;;;;2.00;1.90;;;13.70;99.90;;;13.92;99.83;100368.56;5017104;28;20637;-68
2023/05/12 04:12:39;;;;;;;4.23;2.73;;;13.70;99.90;;;13.89;99.86;100368.00;5023054;28;20660;-68
2023/05/12 04:15:07;;;;;;;4.27;2.63;;;13.70;99.90;;;13.88;99.56;100368.97;5026799;28;20628;-68
2023/05/12 04:17:34;;;;;;;3.40;2.47;;;13.70;99.90;;;13.85;99.64;100367.44;5026262;28;20664;-67
2023/05/12 04:20:01;;;;;;;1.97;1.80;;;13.60;99.90;;;13.85;99.67;100370.06;5014201;28;20625;-66
2023/05/12 04:22:27;;;;;;;2.27;2.10;;;13.70;99.90;;;13.88;99.93;100369.78;5012824;28;20612;-67
2023/05/12 04:24:54;;;;;;;4.07;2.70;;;13.70;99.90;;;13.88;99.64;100379.47;5028621;28;21054;-70
2023/05/12 04:27:21;;;;;;;2.80;2.57;;;13.70;99.90;;;13.89;100.00;100379.31;5013084;28;20605;-67
2023/05/12 04:29:48;;;;;;;3.20;2.90;;;13.70;99.90;;;13.92;100.00;100386.91;5015052;28;20636;-65
2023/05/12 04:32:15;;;;;;;2.70;2.40;;;13.70;99.90;;;13.93;100.00;100378.06;5022422;28;21191;-68
2023/05/12 04:34:42;;;;;;;2.40;2.20;;;13.70;99.90;;;13.95;100.00;100378.75;5029278;28;20646;-67
2023/05/12 04:37:09;;;;;;;3.03;2.63;;;13.70;99.90;;;13.95;100.00;100375.31;5010172;28;21306;-67
2023/05/12 04:39:36;;;;;;;2.60;2.47;;;13.70;99.90;;;13.95;100.00;100381.38;5011764;28;20629;-64
2023/05/12 04:42:03;;;;;;;4.03;2.60;;;13.70;99.90;;;13.97;100.00;100387.31;5011440;28;20740;-67
2023/05/12 04:44:30;;;;;;;2.97;2.70;;;13.80;99.90;;;13.99;100.00;100385.38;5027651;28;20615;-68
2023/05/12 04:46:57;;;;;;;2.60;2.40;;;13.80;99.90;;;14.02;100.00;100385.13;5030056;28;21192;-69
2023/05/12 04:49:24;;;;;;;2.63;2.40;;;13.80;99.90;;;14.00;100.00;100386.22;5026959;28;21234;-67
2023/05/12 04:51:51;;;;;;;2.77;2.50;;;13.80;99.90;;;14.03;100.00;100384.13;5010785;28;21109;-69
2023/05/12 04:54:17;;;;;;;3.27;2.97;;;13.80;99.90;;;14.03;100.00;100393.81;5016680;28;20639;-67
2023/05/12 04:56:45;;;;;;;3.47;2.90;;;13.80;99.90;;;14.03;100.00;100397.25;5017047;28;20620;-68
2023/05/12 04:59:14;;;;;;;2.97;2.77;;;13.80;99.90;;;14.06;100.00;100398.78;5029418;28;20649;-67
2023/05/12 05:01:42;;;;;;;3.00;2.80;;;13.80;99.90;;;14.02;100.00;100390.38;5030373;28;21094;-67
2023/05/12 05:04:09;;;;;;;4.47;3.20;;;13.80;99.90;;;13.98;100.00;100385.53;5030961;28;20701;-67
2023/05/12 05:06:36;;;;;;;4.47;3.23;;;13.80;99.90;;;13.97;100.00;100400.44;5035467;28;20635;-67
2023/05/12 05:09:03;;;;;;;3.70;3.30;;;13.70;99.90;;;13.95;100.00;100404.16;5029408;28;20663;-68
2023/05/12 05:11:31;;;;;;;5.50;3.80;;;13.70;99.90;;;13.95;100.00;100401.53;5018772;28;20672;-67
2023/05/12 05:13:58;;;;;;;3.43;3.10;;;13.70;99.90;;;13.98;100.00;100399.47;5015146;28;20637;-67
2023/05/12 05:16:25;;;;;;;3.27;3.00;;;13.80;99.90;;;14.01;100.00;100396.56;5022581;28;20608;-67
2023/05/12 05:18:52;;;;;;;4.90;3.53;;;13.80;99.90;;;14.09;100.00;100397.69;5022350;28;20668;-67
2023/05/12 05:21:19;;;;;;;4.30;3.00;;;13.90;99.90;;;14.15;100.00;100402.38;5026959;28;20613;-68
2023/05/12 05:23:46;;;;;;;5.80;3.50;;;13.90;99.90;;;14.19;100.00;100401.13;5019002;28;20635;-66
2023/05/12 05:26:13;;;;;;;6.73;4.07;;;13.90;99.90;;;14.28;100.00;100410.78;5031389;28;20634;-67
2023/05/12 05:28:40;;;;;;;4.70;3.50;;;14.00;99.90;;;14.34;100.00;100405.84;5029458;28;20656;-67
2023/05/12 05:31:07;;;;;;;5.63;4.10;;;14.10;99.90;;;14.43;100.00;100409.44;5032290;28;20614;-67
2023/05/12 05:33:34;;;;;;;5.17;4.13;;;14.10;99.90;;;14.51;100.00;100413.03;5021196;28;20657;-67
2023/05/12 05:36:02;;;;;;;5.77;4.50;;;14.20;99.90;;;14.55;99.45;100408.31;5011603;28;20588;-67
2023/05/12 05:38:29;;;;;;;5.67;3.73;;;14.30;99.90;;;14.62;99.01;100412.88;5012164;28;20664;-69
2023/05/12 05:40:55;;;;;;;4.73;4.03;;;14.40;99.90;;;14.70;98.57;100412.97;5015599;28;20618;-67
2023/05/12 05:43:22;;;;;;;7.90;4.43;;;14.40;99.90;;;14.75;98.11;100415.19;5012649;28;20655;-67
2023/05/12 05:45:50;;;;;;;6.83;4.47;;;14.50;99.90;;;14.78;97.80;100415.72;5016328;28;20646;-68
2023/05/12 05:48:17;;;;;;;5.40;4.20;;;14.60;99.90;;;14.91;98.18;100430.34;5015728;28;21145;-68
2023/05/12 05:50:44;;;;;;;5.67;4.20;;;14.60;99.90;;;14.99;97.69;100422.59;5014189;28;20688;-68
2023/05/12 05:53:11;;;;;;;5.70;3.40;;;14.70;99.90;;;15.06;97.66;100419.22;5016016;28;20656;-70
2023/05/12 05:55:38;;;;;;;5.07;3.93;;;14.80;99.90;;;15.13;96.61;100420.31;5012753;28;20652;-70
2023/05/12 05:58:05;;;;;;;4.03;3.50;;;14.80;99.90;;;15.15;95.92;100423.63;5014451;28;20674;-67
2023/05/12 06:00:32;;;;;;;5.33;3.73;;;14.90;99.90;;;15.17;95.30;100429.56;5018491;28;20631;-70
2023/05/12 06:02:59;;;;;;;4.80;3.43;;;14.90;99.90;;;15.16;94.69;100430.53;5023511;28;20736;-67
2023/05/12 06:05:26;;;;;;;5.83;4.70;;;14.90;99.90;;;15.13;94.25;100436.09;5017363;28;20983;-67
2023/05/12 06:07:53;;;;;;;4.40;3.60;;;14.90;99.90;;;15.14;94.56;100437.72;5014800;28;20666;-68
2023/05/12 06:10:22;;;;;;;4.47;2.67;;;14.90;99.90;;;15.17;95.07;100436.63;5033497;28;20635;-68
2023/05/12 06:12:49;;;;;;;3.77;3.33;;;14.90;99.90;;;15.18;94.96;100438.28;5026430;28;21073;-67
2023/05/12 06:15:17;;;;;;;4.23;3.47;;;15.00;99.90;;;15.17;94.42;100442.72;5022626;28;20665;-67
2023/05/12 06:17:44;;;;;;;3.00;2.77;;;15.00;99.90;;;15.21;95.25;100444.06;5010953;28;21438;-68
2023/05/12 06:20:12;;;;;;;3.20;2.90;;;15.00;99.90;;;15.18;94.64;100441.72;5028569;28;20731;-67
2023/05/12 06:22:41;;;;;;;4.63;2.77;;;14.90;99.90;;;15.20;95.33;100452.94;5040081;28;20618;-68
2023/05/12 06:25:08;;;;;;;2.23;1.93;;;15.00;99.90;;;15.22;94.66;100452.78;5016245;28;20636;-67
2023/05/12 06:27:35;;;;;;;3.37;2.07;;;15.00;99.90;;;15.15;93.85;100452.53;5048749;28;20647;-70
2023/05/12 06:30:03;;;;;;;1.57;1.50;;;15.00;99.90;;;15.11;94.68;100451.16;5014935;28;20636;-67
2023/05/12 06:32:30;;;;;;;3.50;2.60;;;14.90;99.90;;;15.14;95.12;100448.25;5019163;28;20747;-67
2023/05/12 06:34:57;;;;;;;3.60;2.53;;;14.90;99.90;;;15.14;95.16;100447.44;5026943;28;20635;-66
2023/05/12 06:37:24;;;;;;;2.80;2.37;;;14.90;99.90;;;15.12;94.97;100452.81;5021358;28;20619;-67
2023/05/12 06:39:51;;;;;;;1.93;1.80;;;14.90;99.90;;;15.15;95.41;100455.16;5027888;28;21213;-66
2023/05/12 06:42:17;;;;;;;2.03;1.90;;;14.90;99.90;;;15.16;94.58;100456.00;5028521;28;20637;-65
2023/05/12 06:44:45;;;;;;;2.27;2.07;;;15.00;99.90;;;15.13;94.22;100461.53;5019394;28;20640;-67
2023/05/12 06:47:11;;;;;;;2.80;2.60;;;14.90;99.90;;;15.11;94.42;100461.69;5028039;28;20616;-68
2023/05/12 06:49:38;;;;;;;2.53;2.33;;;14.90;99.90;;;15.10;95.23;100465.25;5025393;28;20659;-67
2023/05/12 06:52:06;;;;;;;2.90;2.70;;;14.90;99.90;;;15.12;95.17;100462.50;5028985;28;21098;-68
2023/05/12 06:54:33;;;;;;;1.93;1.60;;;14.90;99.90;;;15.13;95.52;100467.63;5013198;28;20634;-68
2023/05/12 06:57:00;;;;;;;1.80;1.50;;;14.90;99.90;;;15.17;95.47;100469.00;5024581;28;20620;-66
2023/05/12 06:59:27;;;;;;;2.50;1.97;;;15.00;99.90;;;15.23;94.88;100464.94;5013978;28;20653;-67
2023/05/12 07:01:54;;;;;;;1.67;1.57;;;15.00;99.90;;;15.33;93.46;100463.94;5010486;28;20629;-66
2023/05/12 07:04:21;;;;;;;1.57;1.40;;;15.10;99.90;;;15.45;93.27;100465.47;5009452;28;20633;-66
2023/05/12 07:06:48;;;;;;;1.70;1.60;;;15.20;99.90;;;15.54;92.49;100467.19;5033304;28;21066;-65
2023/05/12 07:09:17;;;;;;;1.97;1.87;;;15.30;99.90;;;15.61;91.64;100471.91;5029228;28;20652;-67
2023/05/12 07:11:44;;;;;;;2.43;2.20;;;15.40;99.90;;;15.66;91.04;100480.16;5016372;28;20632;-66
2023/05/12 07:14:11;;;;;;;2.10;1.53;;;15.40;99.90;;;15.70;90.56;100471.00;5022572;28;20672;-66
2023/05/12 07:16:38;;;;;;;2.00;1.90;;;15.50;99.90;;;15.69;90.54;100470.19;5018831;28;20629;-65
2023/05/12 07:19:07;;;;;;;1.80;1.70;;;15.40;99.90;;;15.72;89.67;100466.41;5014527;28;21281;-66
2023/05/12 07:21:36;;;;;;;1.43;1.33;;;15.50;99.90;;;15.81;90.24;100473.44;5025516;28;20624;-67
2023/05/12 07:24:04;;;;;;;1.57;1.47;;;15.60;99.90;;;15.86;89.47;100472.03;5018436;28;20637;-65
2023/05/12 07:26:32;;;;;;;1.90;1.80;;;15.60;99.90;;;15.93;88.92;100478.34;5020827;28;20727;-67
2023/05/12 07:28:59;;;;;;;1.20;1.20;;;15.70;99.90;;;15.98;88.00;100470.00;5016088;28;20670;-66
2023/05/12 07:31:26;;;;;;;2.33;1.53;;;15.80;99.90;;;16.04;88.33;100464.97;5022029;28;21040;-67
2023/05/12 07:33:53;;;;;;;1.37;1.27;;;15.80;99.90;;;16.16;88.17;100479.56;5044318;28;20655;-67
2023/05/12 07:36:20;;;;;;;1.50;1.40;;;15.90;99.90;;;16.19;87.54;100470.53;5024844;28;20994;-68
2023/05/12 07:38:48;;;;;;;2.10;1.90;;;15.90;99.90;;;16.20;87.15;100480.09;5026125;28;21027;-66
2023/05/12 07:41:16;;;;;;;1.50;1.40;;;15.90;99.90;;;16.21;88.07;100468.59;5025346;28;20613;-67
2023/05/12 07:43:43;;;;;;;1.73;1.63;;;16.00;99.90;;;16.13;86.97;100474.63;5020698;28;20637;-66
2023/05/12 07:46:10;;;;;;;1.73;1.63;;;15.90;99.90;;;16.10;87.12;100477.53;5020501;28;20644;-66
2023/05/12 07:48:38;;;;;;;1.93;1.80;;;15.90;99.90;;;16.05;87.13;100477.16;5014824;28;20656;-65
2023/05/12 07:51:06;;;;;;;1.93;1.80;;;15.80;99.90;;;16.03;86.95;100467.75;5016326;28;21450;-65
2023/05/12 07:53:34;;;;;;;1.30;1.20;;;15.80;99.90;;;16.04;86.69;100474.66;5043049;28;21134;-66
2023/05/12 07:56:01;;;;;;;1.97;1.87;;;15.80;99.90;;;15.95;86.70;100470.31;5017747;28;20663;-64
2023/05/12 07:58:28;;;;;;;1.50;1.40;;;15.80;99.90;;;15.92;86.70;100473.22;5031758;28;20640;-67
2023/05/12 08:00:57;;;;;;;1.10;1.10;;;15.70;99.90;;;15.93;87.95;100473.06;5025655;28;20641;-66
2023/05/12 08:03:24;;;;;;;1.33;1.30;;;15.70;99.90;;;15.87;88.08;100467.56;5031123;28;21286;-66
2023/05/12 08:05:52;;;;;;;1.60;1.43;;;15.70;99.90;;;15.79;87.29;100478.00;5031512;28;20648;-65
2023/05/12 08:08:19;;;;;;;1.93;1.83;;;15.60;99.90;;;15.78;87.38;100471.91;5040787;28;20655;-67
2023/05/12 08:10:46;;;;;;;1.37;1.30;;;15.60;99.90;;;15.81;87.42;100476.06;5031462;28;21020;-66
2023/05/12 08:13:13;;;;;;;1.67;1.57;;;15.60;99.90;;;15.82;87.14;100477.72;5027175;28;20697;-67
2023/05/12 08:15:40;;;;;;;1.67;1.57;;;15.60;99.90;;;15.83;87.05;100474.09;5014701;28;20647;-66
2023/05/12 08:18:07;;;;;;;0.80;0.80;;;15.60;99.90;;;15.84;86.59;100478.41;5016378;28;21041;-66
2023/05/12 08:20:34;;;;;;;0.40;0.40;;;15.60;99.90;;;15.82;85.36;100481.16;5032993;28;20660;-67
2023/05/12 08:23:01;;;;;;;1.80;1.70;;;15.60;99.90;;;15.84;85.26;100479.25;5030351;28;22730;-66
2023/05/12 08:25:29;;;;;;;1.40;1.40;;;15.60;99.90;;;15.88;84.78;100483.22;5021076;28;20612;-65
2023/05/12 08:27:58;;;;;;;1.60;1.53;;;15.60;99.90;;;16.02;84.53;100484.50;5027870;28;20676;-65
2023/05/12 08:30:25;;;;;;;1.17;1.17;;;15.80;99.90;;;16.21;84.59;100476.47;5024440;28;20635;-65
2023/05/12 08:32:55;;;;;;;1.23;1.13;;;16.00;99.90;;;16.45;82.29;100471.44;5025366;28;20673;-65
2023/05/12 08:35:24;;;;;;;1.30;1.30;;;16.20;99.90;;;16.61;81.14;100479.50;5021650;28;20687;-64
2023/05/12 08:37:51;;;;;;;1.00;1.00;;;16.30;99.90;;;16.94;80.96;100486.69;5032073;28;20660;-65
2023/05/12 08:40:23;;;;;;;2.07;1.97;;;16.70;99.90;;;17.04;77.02;100482.13;5039348;28;20728;-65
2023/05/12 08:43:17;;;;;;;2.47;2.37;;;16.80;99.90;;;17.08;78.80;100491.38;5027963;28;20631;-65
2023/05/12 08:45:46;;;;;;;2.03;1.93;;;16.80;99.90;;;17.28;79.18;100491.16;5010698;28;20712;-67
2023/05/12 08:48:14;;;;;;;2.10;2.00;;;17.00;99.90;;;17.41;78.37;100488.94;5023333;28;21131;-66
2023/05/12 08:50:42;;;;;;;1.90;1.80;;;17.10;99.90;;;17.44;77.07;100488.63;5010251;28;20683;-66
2023/05/12 08:53:11;;;;;;;2.43;1.30;;;17.20;99.90;;;17.37;76.99;100492.88;5013071;28;21291;-66
2023/05/12 08:55:41;;;;;;;0.77;0.77;;;17.20;99.90;;;17.33;75.80;100492.38;5028299;28;21056;-66
2023/05/12 08:58:24;;;;;;;2.10;2.00;;;17.10;99.90;;;17.26;76.49;100482.59;5022873;28;20659;-66
2023/05/12 09:01:07;;;;;;;2.77;2.27;;;17.00;99.90;;;17.23;75.84;100490.84;5013096;28;20586;-66
2023/05/12 09:03:34;;;;;;;2.97;1.93;;;17.00;99.90;;;17.26;75.45;100491.34;5017716;28;20640;-65
2023/05/12 09:06:02;;;;;;;2.00;1.90;;;17.00;99.90;;;17.33;76.24;100487.09;5033949;28;21179;-66
2023/05/12 09:08:31;;;;;;;2.93;2.83;;;17.10;99.90;;;17.44;76.94;100483.38;5011021;28;20664;-66
2023/05/12 09:10:59;;;;;;;3.20;2.90;;;17.20;99.90;;;17.56;76.24;100482.97;5026741;28;20609;-66
2023/05/12 09:13:44;;;;;;;2.63;2.47;;;17.30;99.90;;;17.71;75.69;100491.09;5021940;28;20665;-65
2023/05/12 09:16:12;;;;;;;0.73;0.73;;;17.40;99.90;;;17.65;72.73;100489.09;5045922;28;21244;-65
2023/05/12 09:19:00;;;;;;;2.87;2.53;;;17.50;99.90;;;17.62;73.59;100492.88;5030361;28;21112;-66
2023/05/12 09:21:30;;;;;;;3.57;3.37;;;17.40;99.90;;;17.71;73.68;100497.19;5021269;28;20629;-66
2023/05/12 09:24:06;;;;;;;2.40;2.30;;;17.40;99.90;;;17.86;72.73;100505.34;5020073;28;20617;-66
2023/05/12 09:26:52;;;;;;;3.53;3.23;;;17.60;99.90;;;18.03;73.04;100493.84;5034553;28;20650;-65
2023/05/12 09:29:20;;;;;;;3.33;3.03;;;17.80;99.90;;;18.05;72.68;100491.03;5048249;28;20681;-67
2023/05/12 09:32:03;;;;;;;3.03;2.80;;;17.80;99.90;;;18.07;73.38;100481.97;5045881;28;20634;-66
2023/05/12 09:34:37;;;;;;;3.60;3.30;;;17.80;99.90;;;18.16;72.99;100488.91;5010477;28;20696;-66
2023/05/12 09:37:06;;;;;;;2.80;2.60;;;17.90;99.90;;;18.19;72.47;100488.56;5009848;28;20655;-65
2023/05/12 09:39:33;;;;;;;2.60;2.30;;;17.90;99.90;;;18.20;72.60;100498.16;5008290;28;20634;-66
2023/05/12 09:42:00;;;;;;;1.80;1.80;;;17.90;99.90;;;17.95;71.07;100485.06;5015090;28;20629;-65
2023/05/12 09:44:28;;;;;;;2.83;2.60;;;17.80;99.90;;;17.82;72.20;100483.69;5019896;28;20728;-66
2023/05/12 09:46:55;;;;;;;3.47;2.87;;;17.60;99.90;;;17.86;72.88;100499.22;5010345;28;20624;-67
2023/05/12 09:49:25;;;;;;;2.43;2.27;;;17.60;99.90;;;17.80;72.00;100487.50;5012250;28;20652;-66
2023/05/12 09:51:55;;;;;;;3.87;3.57;;;17.60;99.90;;;17.82;72.69;100488.97;5029690;28;20604;-66
2023/05/12 09:54:30;;;;;;;3.10;2.90;;;17.60;99.90;;;17.94;72.37;100491.31;5011218;28;20645;-65
2023/05/12 09:57:01;;;;;;;3.40;3.10;;;17.70;99.90;;;18.01;73.11;100482.63;5011938;28;20628;-66
2023/05/12 09:59:37;;;;;;;3.60;3.40;;;17.80;99.90;;;18.22;72.67;100485.63;5028051;28;20644;-66
2023/05/12 10:02:08;;;;;;;3.10;2.87;;;17.90;99.90;;;18.36;71.66;100479.69;5025887;28;20961;-67
2023/05/12 10:04:51;;;;;;;2.37;2.17;;;18.10;99.90;;;18.55;70.44;100482.03;5033268;28;20663;-66
2023/05/12 10:07:22;;;;;;;1.97;1.87;;;18.30;99.90;;;18.59;70.96;100486.00;5038024;28;20639;-65
2023/05/12 10:09:49;;;;;;;3.80;3.50;;;18.40;99.90;;;18.70;71.55;100478.75;5020251;28;20664;-66
2023/05/12 10:12:16;;;;;;;3.73;3.40;;;18.40;99.90;;;18.66;70.87;100482.69;5023599;28;20613;-67
2023/05/12 10:14:44;;;;;;;3.57;3.27;;;18.50;99.90;;;18.66;70.82;100478.25;5008224;28;20661;-67